createdAt,value
2024-04-19T00:00:08.730Z,93693.73
2024-04-19T00:00:53.057Z,93697.05
2024-04-19T00:01:48.743Z,93690.98
2024-04-19T00:02:22.158Z,93693.09
2024-04-19T00:02:55.948Z,93685.86
2024-04-19T00:03:29.989Z,93694.86
2024-04-19T00:04:03.352Z,93691.33
2024-04-19T00:04:36.908Z,93689.45
2024-04-19T00:05:11.969Z,93689.13
2024-04-19T00:05:46.142Z,93691.34
2024-04-19T00:06:37.681Z,93698.80
2024-04-19T00:07:11.297Z,93695.52
2024-04-19T00:07:50.590Z,93695.33
2024-04-19T00:08:24.922Z,93694.38
2024-04-19T00:08:58.814Z,93696.23
2024-04-19T00:09:32.435Z,93695.13
2024-04-19T00:10:06.180Z,93697.04
2024-04-19T00:10:39.757Z,93698.32
2024-04-19T00:11:13.339Z,93697.96
2024-04-19T00:11:47.905Z,93697.71
2024-04-19T00:12:21.559Z,93692.69
2024-04-19T00:12:55.996Z,93695.21
2024-04-19T00:13:29.313Z,93688.31
2024-04-19T00:14:02.476Z,93691.16
2024-04-19T00:14:36.050Z,93690.58
2024-04-19T00:15:10.153Z,93690.84
2024-04-19T00:15:44.448Z,93690.36
2024-04-19T00:16:18.173Z,93682.60
2024-04-19T00:16:52.151Z,93689.54
2024-04-19T00:17:28.625Z,93690.41
2024-04-19T00:18:06.951Z,93674.80
2024-04-19T00:18:46.804Z,93689.38
2024-04-19T00:19:20.601Z,93685.52
2024-04-19T00:19:54.096Z,93683.96
2024-04-19T00:20:27.347Z,93686.11
2024-04-19T00:21:14.028Z,93685.82
2024-04-19T00:21:47.353Z,93689.81
2024-04-19T00:22:20.780Z,93686.34
2024-04-19T00:22:54.121Z,93688.58
2024-04-19T00:23:27.280Z,93686.64
2024-04-19T00:24:00.881Z,93689.20
2024-04-19T00:24:34.622Z,93684.00
2024-04-19T00:25:08.499Z,93687.63
2024-04-19T00:25:42.242Z,93681.05
2024-04-19T00:26:15.385Z,93691.87
2024-04-19T00:26:49.088Z,93694.12
2024-04-19T00:27:42.369Z,93694.72
2024-04-19T00:28:16.832Z,93695.10
2024-04-19T00:28:50.519Z,93687.74
2024-04-19T00:29:24.105Z,93695.17
2024-04-19T00:29:57.637Z,93694.49
2024-04-19T00:30:31.284Z,93689.83
2024-04-19T00:31:04.912Z,93690.70
2024-04-19T00:31:38.269Z,93689.54
2024-04-19T00:32:11.349Z,93691.48
2024-04-19T00:32:46.113Z,93691.48
2024-04-19T00:33:22.056Z,93687.40
2024-04-19T00:33:55.358Z,93686.70
2024-04-19T00:34:28.993Z,93689.63
2024-04-19T00:35:02.252Z,93685.29
2024-04-19T00:35:35.326Z,93679.08
2024-04-19T00:36:08.588Z,93688.00
2024-04-19T00:36:41.944Z,93689.60
2024-04-19T00:37:15.182Z,93686.54
2024-04-19T00:37:48.906Z,93678.23
2024-04-19T00:38:40.290Z,93685.85
2024-04-19T00:39:14.037Z,93679.73
2024-04-19T00:39:47.448Z,93683.44
2024-04-19T00:40:21.166Z,93681.00
2024-04-19T00:40:56.182Z,93682.09
2024-04-19T00:41:29.624Z,93679.77
2024-04-19T00:42:02.961Z,93678.14
2024-04-19T00:42:36.221Z,93681.56
2024-04-19T00:43:09.473Z,93679.92
2024-04-19T00:43:42.713Z,93675.31
2024-04-19T00:44:15.948Z,93678.26
2024-04-19T00:44:49.619Z,93678.97
2024-04-19T00:45:39.164Z,93666.38
2024-04-19T00:46:13.174Z,93670.52
2024-04-19T00:46:48.892Z,93672.87
2024-04-19T00:47:37.126Z,93679.09
2024-04-19T00:48:29.109Z,93674.20
2024-04-19T00:49:03.146Z,93671.33
2024-04-19T00:49:37.227Z,93674.23
2024-04-19T00:50:11.189Z,93677.45
2024-04-19T00:50:45.675Z,93674.08
2024-04-19T00:51:20.627Z,93676.55
2024-04-19T00:51:54.185Z,93674.48
2024-04-19T00:52:28.404Z,93670.33
2024-04-19T00:53:03.996Z,93670.24
2024-04-19T00:53:38.768Z,93666.08
2024-04-19T00:54:30.333Z,93670.08
2024-04-19T00:55:03.689Z,93668.78
2024-04-19T00:55:37.395Z,93672.59
2024-04-19T00:56:11.050Z,93675.64
2024-04-19T00:56:44.127Z,93671.23
2024-04-19T00:57:17.283Z,93665.61
2024-04-19T00:57:51.647Z,93667.24
2024-04-19T00:58:27.323Z,93669.48
2024-04-19T00:59:01.020Z,93666.36
2024-04-19T00:59:35.122Z,93671.38
2024-04-19T01:00:10.603Z,93665.89
2024-04-19T01:00:43.967Z,93666.84
2024-04-19T01:01:19.104Z,93669.55
2024-04-19T01:01:53.321Z,93673.58
2024-04-19T01:02:27.773Z,93674.36
2024-04-19T01:03:21.699Z,93671.52
2024-04-19T01:03:56.983Z,93668.23
2024-04-19T01:04:30.515Z,93674.25
2024-04-19T01:05:04.388Z,93665.52
2024-04-19T01:05:37.706Z,93668.55
2024-04-19T01:06:31.052Z,93666.34
2024-04-19T01:07:04.497Z,93660.80
2024-04-19T01:07:38.137Z,93664.63
2024-04-19T01:08:12.341Z,93664.27
2024-04-19T01:08:46.916Z,93656.55
2024-04-19T01:09:37.973Z,93660.23
2024-04-19T01:10:11.634Z,93664.30
2024-04-19T01:10:44.828Z,93660.20
2024-04-19T01:11:18.430Z,93659.67
2024-04-19T01:11:51.726Z,93664.11
2024-04-19T01:12:25.343Z,93659.65
2024-04-19T01:12:59.808Z,93660.95
2024-04-19T01:14:00.397Z,93659.92
2024-04-19T01:14:33.775Z,93658.92
2024-04-19T01:15:21.699Z,93657.68
2024-04-19T01:16:02.395Z,93657.01
2024-04-19T01:16:55.925Z,93657.25
2024-04-19T01:17:29.602Z,93657.85
2024-04-19T01:18:04.950Z,93656.00
2024-04-19T01:18:38.782Z,93656.33
2024-04-19T01:19:16.316Z,93657.24
2024-04-19T01:19:49.739Z,93656.86
2024-04-19T01:20:41.353Z,93655.96
2024-04-19T01:21:14.982Z,93657.67
2024-04-19T01:21:49.293Z,93657.80
2024-04-19T01:22:23.331Z,93658.04
2024-04-19T01:22:58.308Z,93657.38
2024-04-19T01:23:32.228Z,93645.40
2024-04-19T01:24:32.541Z,93649.02
2024-04-19T01:25:09.206Z,93648.47
2024-04-19T01:25:43.043Z,93652.98
2024-04-19T01:26:16.354Z,93646.40
2024-04-19T01:26:49.927Z,93649.15
2024-04-19T01:27:23.243Z,93647.91
2024-04-19T01:27:57.283Z,93641.45
2024-04-19T01:28:30.869Z,93643.81
2024-04-19T01:29:04.182Z,93644.33
2024-04-19T01:29:38.330Z,93640.62
2024-04-19T01:30:11.847Z,93642.54
2024-04-19T01:30:47.134Z,93646.75
2024-04-19T01:31:20.415Z,93643.52
2024-04-19T01:31:53.471Z,93643.04
2024-04-19T01:32:26.855Z,93641.61
2024-04-19T01:33:00.515Z,93640.89
2024-04-19T01:33:33.793Z,93640.65
2024-04-19T01:34:07.351Z,93646.86
2024-04-19T01:34:40.758Z,93643.86
2024-04-19T01:35:14.261Z,93648.27
2024-04-19T01:35:48.087Z,93646.52
2024-04-19T01:36:21.610Z,93646.23
2024-04-19T01:36:55.377Z,93649.05
2024-04-19T01:37:28.909Z,93646.13
2024-04-19T01:38:02.483Z,93647.50
2024-04-19T01:38:35.586Z,93646.24
2024-04-19T01:39:09.613Z,93644.86
2024-04-19T01:39:43.842Z,93644.32
2024-04-19T01:40:17.346Z,93641.92
2024-04-19T01:40:50.522Z,93641.72
2024-04-19T01:41:24.075Z,93645.84
2024-04-19T01:41:57.582Z,93648.86
2024-04-19T01:42:31.305Z,93647.67
2024-04-19T01:43:10.715Z,93647.34
2024-04-19T01:43:44.726Z,93648.06
2024-04-19T01:44:17.950Z,93644.20
2024-04-19T01:44:51.278Z,93651.07
2024-04-19T01:45:24.473Z,93646.86
2024-04-19T01:45:57.700Z,93644.32
2024-04-19T01:46:30.725Z,93646.20
2024-04-19T01:47:04.009Z,93642.34
2024-04-19T01:47:39.260Z,93638.42
2024-04-19T01:48:12.826Z,93638.17
2024-04-19T01:48:46.966Z,93636.51
2024-04-19T01:49:20.829Z,93643.51
2024-04-19T01:49:54.272Z,93643.92
2024-04-19T01:50:27.644Z,93641.36
2024-04-19T01:51:01.154Z,93643.35
2024-04-19T01:51:34.717Z,93644.88
2024-04-19T01:52:08.045Z,93645.00
2024-04-19T01:52:41.549Z,93642.33
2024-04-19T01:53:14.947Z,93642.36
2024-04-19T01:53:49.133Z,93645.73
2024-04-19T01:54:23.853Z,93637.90
2024-04-19T01:54:58.823Z,93645.45
2024-04-19T01:55:32.318Z,93645.95
2024-04-19T01:56:05.949Z,93647.41
2024-04-19T01:56:49.255Z,93647.61
2024-04-19T01:57:22.605Z,93643.28
2024-04-19T01:57:56.198Z,93644.88
2024-04-19T01:58:29.527Z,93639.40
2024-04-19T01:59:02.836Z,93644.17
2024-04-19T01:59:36.213Z,93640.73
2024-04-19T02:00:10.351Z,93641.66
2024-04-19T02:00:46.580Z,93637.80
2024-04-19T02:01:22.723Z,93641.47
2024-04-19T02:01:57.016Z,93640.66
2024-04-19T02:02:30.199Z,93639.02
2024-04-19T02:03:03.840Z,93644.34
2024-04-19T02:03:39.700Z,93642.02
2024-04-19T02:04:13.154Z,93638.58
2024-04-19T02:04:49.834Z,93640.03
2024-04-19T02:05:23.224Z,93632.11
2024-04-19T02:06:08.942Z,93641.23
2024-04-19T02:06:42.142Z,93633.56
2024-04-19T02:07:35.275Z,93641.42
2024-04-19T02:08:08.633Z,93642.52
2024-04-19T02:08:42.494Z,93640.22
2024-04-19T02:09:15.584Z,93639.06
2024-04-19T02:09:49.542Z,93634.45
2024-04-19T02:10:23.002Z,93635.51
2024-04-19T02:11:00.792Z,93634.59
2024-04-19T02:11:34.130Z,93633.98
2024-04-19T02:12:07.504Z,93634.90
2024-04-19T02:12:40.818Z,93633.99
2024-04-19T02:13:13.989Z,93635.86
2024-04-19T02:13:47.080Z,93634.27
2024-04-19T02:14:20.566Z,93633.09
2024-04-19T02:14:54.961Z,93632.35
2024-04-19T02:15:28.460Z,93622.52
2024-04-19T02:16:02.049Z,93629.89
2024-04-19T02:16:35.373Z,93635.69
2024-04-19T02:17:08.925Z,93628.25
2024-04-19T02:17:42.439Z,93631.27
2024-04-19T02:18:16.929Z,93632.10
2024-04-19T02:18:50.441Z,93631.73
2024-04-19T02:19:23.424Z,93629.02
2024-04-19T02:19:56.597Z,93631.67
2024-04-19T02:20:29.717Z,93631.98
2024-04-19T02:21:02.958Z,93628.24
2024-04-19T02:21:36.440Z,93630.18
2024-04-19T02:22:09.806Z,93638.00
2024-04-19T02:22:43.063Z,93632.66
2024-04-19T02:23:40.551Z,93628.77
2024-04-19T02:24:13.705Z,93625.58
2024-04-19T02:24:48.048Z,93622.53
2024-04-19T02:25:22.535Z,93625.11
2024-04-19T02:25:55.821Z,93624.81
2024-04-19T02:26:30.303Z,93624.23
2024-04-19T02:27:07.468Z,93628.48
2024-04-19T02:27:59.214Z,93622.46
2024-04-19T02:28:52.642Z,93622.80
2024-04-19T02:29:44.236Z,93618.42
2024-04-19T02:30:38.034Z,93617.34
2024-04-19T02:31:11.732Z,93615.31
2024-04-19T02:31:45.168Z,93618.30
2024-04-19T02:32:18.692Z,93618.17
2024-04-19T02:32:52.280Z,93613.48
2024-04-19T02:33:25.700Z,93619.13
2024-04-19T02:34:17.796Z,93621.30
2024-04-19T02:34:52.459Z,93617.27
2024-04-19T02:35:25.545Z,93621.02
2024-04-19T02:35:58.966Z,93618.13
2024-04-19T02:36:32.433Z,93618.11
2024-04-19T02:37:06.112Z,93623.19
2024-04-19T02:37:39.658Z,93620.71
2024-04-19T02:38:12.907Z,93620.23
2024-04-19T02:38:46.484Z,93619.77
2024-04-19T02:39:19.695Z,93619.39
2024-04-19T02:39:53.007Z,93621.05
2024-04-19T02:40:27.629Z,93621.16
2024-04-19T02:41:01.702Z,93615.94
2024-04-19T02:41:35.001Z,93613.31
2024-04-19T02:42:08.090Z,93622.71
2024-04-19T02:42:59.207Z,93617.02
2024-04-19T02:43:33.221Z,93613.86
2024-04-19T02:44:06.456Z,93609.48
2024-04-19T02:44:39.673Z,93609.26
2024-04-19T02:45:12.752Z,93605.28
2024-04-19T02:45:53.101Z,93605.44
2024-04-19T02:46:30.934Z,93608.20
2024-04-19T02:47:04.253Z,93613.83
2024-04-19T02:47:37.998Z,93609.86
2024-04-19T02:48:11.624Z,93605.85
2024-04-19T02:48:45.427Z,93606.05
2024-04-19T02:49:18.624Z,93605.23
2024-04-19T02:49:51.604Z,93604.35
2024-04-19T02:50:24.625Z,93599.77
2024-04-19T02:50:58.362Z,93602.73
2024-04-19T02:51:31.794Z,93604.19
2024-04-19T02:52:05.907Z,93597.21
2024-04-19T02:52:38.863Z,93601.48
2024-04-19T02:53:11.788Z,93598.20
2024-04-19T02:53:45.322Z,93601.60
2024-04-19T02:54:18.584Z,93599.37
2024-04-19T02:54:51.786Z,93597.59
2024-04-19T02:55:25.063Z,93596.27
2024-04-19T02:55:59.749Z,93597.04
2024-04-19T02:56:32.754Z,93592.94
2024-04-19T02:57:05.942Z,93592.52
2024-04-19T02:57:39.048Z,93587.50
2024-04-19T02:58:12.240Z,93590.15
2024-04-19T02:58:48.442Z,93587.81
2024-04-19T02:59:21.893Z,93590.20
2024-04-19T02:59:55.864Z,93585.39
2024-04-19T03:00:30.091Z,93586.94
2024-04-19T03:01:03.494Z,93590.38
2024-04-19T03:01:37.811Z,93589.50
2024-04-19T03:02:11.276Z,93591.23
2024-04-19T03:02:45.031Z,93591.63
2024-04-19T03:03:18.464Z,93593.20
2024-04-19T03:03:51.684Z,93594.34
2024-04-19T03:04:26.231Z,93588.55
2024-04-19T03:04:59.432Z,93595.06
2024-04-19T03:05:32.575Z,93584.06
2024-04-19T03:06:05.889Z,93592.36
2024-04-19T03:06:39.200Z,93593.27
2024-04-19T03:07:12.655Z,93591.25
2024-04-19T03:07:45.814Z,93582.15
2024-04-19T03:08:18.884Z,93588.24
2024-04-19T03:08:52.204Z,93585.42
2024-04-19T03:09:50.532Z,93583.72
2024-04-19T03:10:23.984Z,93584.98
2024-04-19T03:10:56.990Z,93583.41
2024-04-19T03:11:30.353Z,93583.73
2024-04-19T03:12:03.911Z,93585.21
2024-04-19T03:12:37.092Z,93577.66
2024-04-19T03:13:11.689Z,93579.90
2024-04-19T03:13:45.139Z,93579.17
2024-04-19T03:14:18.467Z,93580.56
2024-04-19T03:14:51.895Z,93576.41
2024-04-19T03:15:25.383Z,93577.82
2024-04-19T03:16:08.752Z,93578.22
2024-04-19T03:16:47.738Z,93576.25
2024-04-19T03:17:21.080Z,93574.75
2024-04-19T03:17:54.346Z,93576.25
2024-04-19T03:18:30.123Z,93569.02
2024-04-19T03:19:03.219Z,93566.77
2024-04-19T03:19:36.394Z,93574.79
2024-04-19T03:20:09.769Z,93577.16
2024-04-19T03:20:43.331Z,93578.80
2024-04-19T03:21:16.498Z,93580.62
2024-04-19T03:21:51.829Z,93577.84
2024-04-19T03:22:25.298Z,93576.61
2024-04-19T03:22:58.638Z,93578.30
2024-04-19T03:23:31.868Z,93577.02
2024-04-19T03:24:05.540Z,93580.18
2024-04-19T03:24:38.858Z,93577.75
2024-04-19T03:25:12.278Z,93578.47
2024-04-19T03:25:45.405Z,93576.41
2024-04-19T03:26:18.521Z,93576.42
2024-04-19T03:26:51.828Z,93579.37
2024-04-19T03:27:25.436Z,93572.39
2024-04-19T03:27:58.656Z,93571.08
2024-04-19T03:28:31.773Z,93566.21
2024-04-19T03:29:05.064Z,93570.67
2024-04-19T03:29:38.234Z,93576.27
2024-04-19T03:30:11.904Z,93576.21
2024-04-19T03:30:45.446Z,93577.27
2024-04-19T03:31:18.662Z,93577.39
2024-04-19T03:31:51.757Z,93576.64
2024-04-19T03:32:25.481Z,93578.27
2024-04-19T03:32:58.773Z,93578.45
2024-04-19T03:33:31.839Z,93578.71
2024-04-19T03:34:04.951Z,93578.17
2024-04-19T03:34:41.302Z,93572.52
2024-04-19T03:35:16.574Z,93574.69
2024-04-19T03:35:50.356Z,93570.39
2024-04-19T03:36:23.513Z,93576.27
2024-04-19T03:36:56.672Z,93576.59
2024-04-19T03:37:29.721Z,93570.90
2024-04-19T03:38:02.835Z,93572.00
2024-04-19T03:38:36.288Z,93571.81
2024-04-19T03:39:10.359Z,93567.73
2024-04-19T03:39:46.383Z,93571.21
2024-04-19T03:40:19.906Z,93570.27
2024-04-19T03:40:56.831Z,93573.79
2024-04-19T03:41:34.889Z,93572.15
2024-04-19T03:42:15.257Z,93570.52
2024-04-19T03:42:49.986Z,93563.30
2024-04-19T03:43:24.923Z,93568.31
2024-04-19T03:44:16.763Z,93566.29
2024-04-19T03:45:11.042Z,93561.02
2024-04-19T03:45:47.359Z,93558.41
2024-04-19T03:46:20.677Z,93558.38
2024-04-19T03:46:53.757Z,93557.63
2024-04-19T03:47:26.876Z,93556.86
2024-04-19T03:48:00.290Z,93553.91
2024-04-19T03:48:33.285Z,93555.91
2024-04-19T03:49:06.330Z,93559.05
2024-04-19T03:49:39.356Z,93561.67
2024-04-19T03:50:12.523Z,93558.11
2024-04-19T03:50:47.380Z,93553.89
2024-04-19T03:51:20.618Z,93551.92
2024-04-19T03:51:54.662Z,93560.34
2024-04-19T03:52:27.698Z,93555.45
2024-04-19T03:53:01.534Z,93553.06
2024-04-19T03:53:34.443Z,93557.12
2024-04-19T03:54:07.518Z,93554.27
2024-04-19T03:54:42.372Z,93552.33
2024-04-19T03:55:15.540Z,93547.98
2024-04-19T03:55:48.748Z,93553.89
2024-04-19T03:56:21.826Z,93552.11
2024-04-19T03:56:54.978Z,93542.48
2024-04-19T03:57:28.087Z,93548.00
2024-04-19T03:58:01.216Z,93548.25
2024-04-19T03:58:34.264Z,93551.55
2024-04-19T03:59:07.484Z,93544.89
2024-04-19T03:59:40.908Z,93545.77
2024-04-19T04:00:22.868Z,93549.14
2024-04-19T04:00:56.359Z,93540.00
2024-04-19T04:01:29.556Z,93531.93
2024-04-19T04:02:04.958Z,93547.39
2024-04-19T04:02:38.017Z,93540.15
2024-04-19T04:03:11.202Z,93545.62
2024-04-19T04:03:46.968Z,93539.29
2024-04-19T04:04:20.179Z,93537.38
2024-04-19T04:04:53.618Z,93543.55
2024-04-19T04:05:26.893Z,93538.58
2024-04-19T04:06:00.278Z,93534.70
2024-04-19T04:06:33.601Z,93544.38
2024-04-19T04:07:06.810Z,93541.40
2024-04-19T04:07:39.967Z,93542.17
2024-04-19T04:08:13.033Z,93537.74
2024-04-19T04:08:49.456Z,93544.27
2024-04-19T04:09:22.553Z,93546.59
2024-04-19T04:09:56.838Z,93542.63
2024-04-19T04:10:30.719Z,93547.41
2024-04-19T04:11:03.953Z,93548.50
2024-04-19T04:11:37.027Z,93550.70
2024-04-19T04:12:10.056Z,93553.64
2024-04-19T04:12:43.372Z,93550.95
2024-04-19T04:13:16.411Z,93551.23
2024-04-19T04:13:49.692Z,93553.03
2024-04-19T04:14:22.796Z,93552.28
2024-04-19T04:14:55.980Z,93547.77
2024-04-19T04:15:29.706Z,93551.16
2024-04-19T04:16:02.920Z,93552.61
2024-04-19T04:16:36.059Z,93552.77
2024-04-19T04:17:09.248Z,93553.08
2024-04-19T04:17:42.505Z,93558.75
2024-04-19T04:18:16.073Z,93556.59
2024-04-19T04:18:49.868Z,93558.96
2024-04-19T04:19:23.531Z,93559.06
2024-04-19T04:19:56.947Z,93560.92
2024-04-19T04:20:31.088Z,93556.52
2024-04-19T04:21:04.282Z,93565.30
2024-04-19T04:21:37.431Z,93565.45
2024-04-19T04:22:10.538Z,93567.05
2024-04-19T04:22:43.969Z,93563.27
2024-04-19T04:23:16.999Z,93568.45
2024-04-19T04:23:50.085Z,93572.67
2024-04-19T04:24:23.066Z,93570.08
2024-04-19T04:24:56.012Z,93571.26
2024-04-19T04:25:29.112Z,93574.00
2024-04-19T04:26:02.108Z,93574.09
2024-04-19T04:26:35.429Z,93570.98
2024-04-19T04:27:08.523Z,93571.58
2024-04-19T04:27:41.593Z,93571.61
2024-04-19T04:28:14.723Z,93560.94
2024-04-19T04:28:47.794Z,93567.77
2024-04-19T04:29:21.122Z,93566.75
2024-04-19T04:29:54.302Z,93563.99
2024-04-19T04:30:27.496Z,93564.00
2024-04-19T04:31:00.556Z,93565.94
2024-04-19T04:31:33.563Z,93563.00
2024-04-19T04:32:07.404Z,93561.45
2024-04-19T04:32:40.961Z,93561.55
2024-04-19T04:33:14.366Z,93560.41
2024-04-19T04:33:47.539Z,93556.37
2024-04-19T04:34:20.935Z,93559.35
2024-04-19T04:34:53.942Z,93557.96
2024-04-19T04:35:27.128Z,93558.34
2024-04-19T04:36:01.307Z,93557.59
2024-04-19T04:36:34.813Z,93554.41
2024-04-19T04:37:08.136Z,93556.89
2024-04-19T04:37:41.119Z,93564.05
2024-04-19T04:38:14.845Z,93566.23
2024-04-19T04:38:47.836Z,93570.06
2024-04-19T04:39:21.016Z,93570.36
2024-04-19T04:39:54.045Z,93561.63
2024-04-19T04:40:27.174Z,93567.74
2024-04-19T04:41:00.336Z,93566.83
2024-04-19T04:41:37.807Z,93565.08
2024-04-19T04:42:10.868Z,93562.41
2024-04-19T04:42:43.949Z,93558.65
2024-04-19T04:43:17.568Z,93569.95
2024-04-19T04:43:50.678Z,93556.31
2024-04-19T04:44:23.883Z,93559.55
2024-04-19T04:44:57.614Z,93562.14
2024-04-19T04:45:32.724Z,93561.48
2024-04-19T04:46:05.900Z,93565.22
2024-04-19T04:46:39.389Z,93556.23
2024-04-19T04:47:12.639Z,93564.09
2024-04-19T04:47:45.813Z,93564.17
2024-04-19T04:48:19.234Z,93563.89
2024-04-19T04:48:52.625Z,93565.80
2024-04-19T04:49:25.867Z,93566.71
2024-04-19T04:49:59.458Z,93569.02
2024-04-19T04:50:32.705Z,93570.36
2024-04-19T04:51:08.562Z,93567.05
2024-04-19T04:51:43.149Z,93569.94
2024-04-19T04:52:16.196Z,93567.19
2024-04-19T04:52:49.639Z,93567.44
2024-04-19T04:53:23.340Z,93574.03
2024-04-19T04:53:56.530Z,93571.66
2024-04-19T04:54:30.476Z,93567.15
2024-04-19T04:55:03.898Z,93561.64
2024-04-19T04:55:37.307Z,93559.39
2024-04-19T04:56:10.563Z,93565.23
2024-04-19T04:56:43.840Z,93566.35
2024-04-19T04:57:16.851Z,93556.88
2024-04-19T04:57:49.914Z,93563.64
2024-04-19T04:58:23.087Z,93562.08
2024-04-19T04:58:56.339Z,93564.99
2024-04-19T04:59:29.411Z,93561.35
2024-04-19T05:00:02.416Z,93560.99
2024-04-19T05:00:37.831Z,93560.76
2024-04-19T05:01:10.938Z,93564.04
2024-04-19T05:01:44.176Z,93564.80
2024-04-19T05:02:17.281Z,93565.58
2024-04-19T05:02:50.633Z,93564.71
2024-04-19T05:03:24.673Z,93563.22
2024-04-19T05:03:57.839Z,93559.71
2024-04-19T05:04:31.226Z,93562.78
2024-04-19T05:05:04.798Z,93556.83
2024-04-19T05:05:38.403Z,93560.02
2024-04-19T05:06:11.520Z,93556.91
2024-04-19T05:06:44.709Z,93557.92
2024-04-19T05:07:17.825Z,93554.83
2024-04-19T05:07:51.850Z,93555.91
2024-04-19T05:08:25.055Z,93550.94
2024-04-19T05:08:58.205Z,93554.77
2024-04-19T05:09:31.273Z,93553.23
2024-04-19T05:10:04.653Z,93542.08
2024-04-19T05:10:37.698Z,93550.89
2024-04-19T05:11:10.785Z,93551.05
2024-04-19T05:11:43.897Z,93553.73
2024-04-19T05:12:17.034Z,93554.89
2024-04-19T05:12:50.223Z,93555.02
2024-04-19T05:13:23.391Z,93551.96
2024-04-19T05:13:56.581Z,93555.90
2024-04-19T05:14:29.586Z,93551.38
2024-04-19T05:15:03.315Z,93551.03
2024-04-19T05:15:39.059Z,93545.89
2024-04-19T05:16:12.315Z,93550.09
2024-04-19T05:16:45.373Z,93546.57
2024-04-19T05:17:18.817Z,93542.59
2024-04-19T05:17:52.216Z,93546.29
2024-04-19T05:18:27.384Z,93537.09
2024-04-19T05:19:01.493Z,93538.79
2024-04-19T05:19:35.566Z,93533.54
2024-04-19T05:20:11.657Z,93532.90
2024-04-19T05:20:49.454Z,93540.02
2024-04-19T05:21:22.831Z,93542.39
2024-04-19T05:21:56.354Z,93537.69
2024-04-19T05:22:30.234Z,93539.57
2024-04-19T05:23:03.406Z,93532.33
2024-04-19T05:23:36.665Z,93537.41
2024-04-19T05:24:10.243Z,93529.57
2024-04-19T05:24:47.247Z,93534.06
2024-04-19T05:25:20.827Z,93532.82
2024-04-19T05:25:54.145Z,93534.61
2024-04-19T05:26:29.860Z,93535.57
2024-04-19T05:27:03.732Z,93534.27
2024-04-19T05:27:37.124Z,93529.42
2024-04-19T05:28:10.122Z,93532.78
2024-04-19T05:28:44.455Z,93522.93
2024-04-19T05:29:17.367Z,93532.54
2024-04-19T05:29:50.307Z,93528.80
2024-04-19T05:30:23.474Z,93533.40
2024-04-19T05:30:58.658Z,93537.06
2024-04-19T05:31:32.117Z,93535.55
2024-04-19T05:32:05.930Z,93533.65
2024-04-19T05:32:39.029Z,93531.14
2024-04-19T05:33:12.164Z,93530.55
2024-04-19T05:33:46.059Z,93527.73
2024-04-19T05:34:19.584Z,93528.90
2024-04-19T05:34:53.190Z,93531.48
2024-04-19T05:35:27.939Z,93526.92
2024-04-19T05:36:01.323Z,93528.39
2024-04-19T05:36:34.779Z,93528.39
2024-04-19T05:37:08.148Z,93530.84
2024-04-19T05:37:41.327Z,93530.47
2024-04-19T05:38:14.681Z,93529.27
2024-04-19T05:38:47.896Z,93525.06
2024-04-19T05:39:21.172Z,93526.01
2024-04-19T05:39:56.026Z,93523.93
2024-04-19T05:40:30.686Z,93525.59
2024-04-19T05:41:03.957Z,93521.25
2024-04-19T05:41:36.947Z,93515.80
2024-04-19T05:42:10.327Z,93518.95
2024-04-19T05:42:45.337Z,93516.59
2024-04-19T05:43:19.295Z,93518.39
2024-04-19T05:43:52.716Z,93525.33
2024-04-19T05:44:32.434Z,93522.55
2024-04-19T05:45:05.985Z,93525.02
2024-04-19T05:45:39.168Z,93523.44
2024-04-19T05:46:12.372Z,93526.23
2024-04-19T05:46:49.568Z,93522.53
2024-04-19T05:47:23.235Z,93525.34
2024-04-19T05:47:56.808Z,93529.66
2024-04-19T05:48:30.165Z,93530.32
2024-04-19T05:49:03.364Z,93532.12
2024-04-19T05:49:36.951Z,93534.39
2024-04-19T05:50:10.229Z,93530.48
2024-04-19T05:50:43.452Z,93530.85
2024-04-19T05:51:16.483Z,93534.61
2024-04-19T05:51:49.641Z,93530.56
2024-04-19T05:52:24.940Z,93534.85
2024-04-19T05:53:00.625Z,93533.19
2024-04-19T05:53:34.359Z,93530.35
2024-04-19T05:54:07.390Z,93530.62
2024-04-19T05:54:40.691Z,93528.75
2024-04-19T05:55:18.551Z,93534.84
2024-04-19T05:55:51.579Z,93531.48
2024-04-19T05:56:24.615Z,93534.71
2024-04-19T05:56:57.667Z,93533.97
2024-04-19T05:57:30.973Z,93533.52
2024-04-19T05:58:06.125Z,93527.34
2024-04-19T05:58:39.327Z,93533.22
2024-04-19T05:59:12.933Z,93531.11
2024-04-19T05:59:46.078Z,93523.17
2024-04-19T06:00:19.646Z,93529.71
2024-04-19T06:00:53.492Z,93529.23
2024-04-19T06:01:26.654Z,93527.52
2024-04-19T06:01:59.964Z,93519.52
2024-04-19T06:02:42.324Z,93523.20
2024-04-19T06:03:15.953Z,93521.98
2024-04-19T06:03:49.521Z,93521.58
2024-04-19T06:04:23.249Z,93519.47
2024-04-19T06:04:56.288Z,93513.75
2024-04-19T06:05:30.005Z,93523.59
2024-04-19T06:06:03.098Z,93526.25
2024-04-19T06:06:36.055Z,93526.52
2024-04-19T06:07:09.264Z,93526.63
2024-04-19T06:07:42.373Z,93527.02
2024-04-19T06:08:15.880Z,93525.91
2024-04-19T06:08:49.040Z,93526.27
2024-04-19T06:09:22.357Z,93526.11
2024-04-19T06:09:55.588Z,93522.20
2024-04-19T06:10:28.831Z,93518.14
2024-04-19T06:11:02.105Z,93527.36
2024-04-19T06:11:35.344Z,93528.54
2024-04-19T06:12:09.141Z,93528.73
2024-04-19T06:12:42.667Z,93529.46
2024-04-19T06:13:16.578Z,93524.98
2024-04-19T06:13:49.900Z,93521.86
2024-04-19T06:14:22.952Z,93527.40
2024-04-19T06:14:56.042Z,93526.91
2024-04-19T06:15:29.395Z,93523.23
2024-04-19T06:16:02.808Z,93524.30
2024-04-19T06:16:36.115Z,93529.25
2024-04-19T06:17:10.658Z,93524.77
2024-04-19T06:17:43.802Z,93528.27
2024-04-19T06:18:17.762Z,93526.91
2024-04-19T06:18:51.151Z,93524.98
2024-04-19T06:19:24.643Z,93527.92
2024-04-19T06:19:57.962Z,93529.73
2024-04-19T06:20:31.063Z,93525.86
2024-04-19T06:21:05.178Z,93526.94
2024-04-19T06:21:38.232Z,93529.34
2024-04-19T06:22:11.796Z,93524.80
2024-04-19T06:22:45.139Z,93524.55
2024-04-19T06:23:18.448Z,93525.18
2024-04-19T06:23:51.433Z,93520.92
2024-04-19T06:24:25.257Z,93524.67
2024-04-19T06:24:58.297Z,93523.83
2024-04-19T06:25:31.371Z,93526.34
2024-04-19T06:26:08.023Z,93524.34
2024-04-19T06:26:41.165Z,93526.44
2024-04-19T06:27:14.617Z,93532.13
2024-04-19T06:27:49.915Z,93528.77
2024-04-19T06:28:26.135Z,93532.58
2024-04-19T06:28:59.198Z,93528.12
2024-04-19T06:29:32.416Z,93527.98
2024-04-19T06:30:06.215Z,93529.66
2024-04-19T06:30:39.700Z,93534.26
2024-04-19T06:31:14.305Z,93532.75
2024-04-19T06:31:47.470Z,93526.46
2024-04-19T06:32:20.733Z,93535.33
2024-04-19T06:32:54.065Z,93534.30
2024-04-19T06:33:27.287Z,93527.83
2024-04-19T06:34:00.393Z,93532.05
2024-04-19T06:34:33.659Z,93528.73
2024-04-19T06:35:09.535Z,93522.89
2024-04-19T06:35:42.688Z,93529.33
2024-04-19T06:36:15.982Z,93530.83
2024-04-19T06:36:49.123Z,93526.42
2024-04-19T06:37:22.179Z,93523.23
2024-04-19T06:37:55.361Z,93530.86
2024-04-19T06:38:28.627Z,93530.06
2024-04-19T06:39:03.662Z,93530.48
2024-04-19T06:39:38.821Z,93528.20
2024-04-19T06:40:13.866Z,93529.15
2024-04-19T06:40:46.899Z,93526.88
2024-04-19T06:41:19.971Z,93526.45
2024-04-19T06:41:54.085Z,93524.19
2024-04-19T06:42:27.323Z,93523.77
2024-04-19T06:43:00.823Z,93520.02
2024-04-19T06:43:34.020Z,93518.05
2024-04-19T06:44:07.564Z,93518.58
2024-04-19T06:44:40.598Z,93520.47
2024-04-19T06:45:13.755Z,93520.67
2024-04-19T06:45:47.374Z,93517.20
2024-04-19T06:46:20.746Z,93519.11